x

Buoy F01 - West Penobscot Bay (44033) Wave Buoy

12:04 - Thu 27th Nov 2014 All times are EST. -5 hours from GMT.

  • Sig Wave height 2.6ft
  • Peak Period 8s
  • Wind
    18mph, 22mph gusts
  • Sea Temp 49°f
  • Air Temp 34°f
  • Sea Pressure 1010.5mb
  • Buoy F01 - West Penobscot Bay
  • Buoy F01 - West Penobscot Bay

More Historic Weather Station data

Upgrade to MSW Pro to gain access to the past 30 days of data for over 8000 Wavebouys and Weather Stations around the globe.

Join Pro

Comparision Forecast

View Surf forecast
   
jeu. 11/27 12:04 2.5ft 8s 18 22 mph 1010.5mb 49f 34f
11:04 3ft 11s 20 25 mph 1010.4mb 49f 34f
10:04 2.5ft 4s 20 27 mph 1009.7mb 49f 33f
9:04 3.5ft 4s 22 27 mph 1008.3mb 49f 34f
8:04 3.5ft 5s 29 38 mph 1006.7mb 49f 34f
7:04 4.5ft 5s 31 38 mph 1005.9mb 49f 34f
6:04 4.5ft 5s 34 40 mph 1004.7mb 49f 34f
5:04 5.5ft 5s 38 45 mph 1002.7mb 49f 34f
4:04 6.5ft 5s 38 45 mph 1001.7mb 49f 34f
3:04 6ft 5s 36 45 mph 1001.6mb 49f 35f
2:04 7ft 5s 36 43 mph 1001.3mb 49f 36f
1:04 6.5ft 5s 36 43 mph 1001.7mb 49f 35f
12:04 6ft 5s 31 38 mph 1003.1mb 49f 37f
mer. 11/26 11:04 5ft 5s 36 40 mph 1004.9mb 49f 37f
10:04 4ft 5s 29 36 mph 1006.8mb 49f 37f
9:04 3.5ft 5s 27 34 mph 1009.5mb 49f 37f
8:04 3.5ft 4s 27 34 mph 1011.5mb 49f 35f
7:04 2.5ft 4s 25 27 mph 1013.8mb 49f 35f
6:04 2.5ft 4s 22 25 mph 1015.3mb 49f 36f
5:04 2.5ft 3s 22 27 mph 1016.8mb 49f 35f
4:04 1.6ft 3s 20 22 mph 1019.6mb 49f 35f
3:04 1.6ft 3s 20 25 mph 1018.7mb 49f 35f
2:04 2ft 3s 16 20 mph 1019.9mb 49f 35f
1:04 2.5ft 4s 16 20 mph 1021mb 49f 37f
12:04 2ft 4s 16 20 mph 1020.9mb 49f 41f
11:04 3ft 8s 20 25 mph 1019.9mb 49f 42f
10:04 3ft 8s 18 22 mph 1022.1mb 49f 43f
9:04 2.5ft 8s 16 20 mph 1022.4mb 50f 44f
7:04 2.5ft 11s 13 18 mph 1020.8mb 50f 46f
6:04 2.5ft 11s 9 11 mph 1020.9mb 50f 45f
5:04 2.5ft 11s 11 13 mph 1020.3mb 50f 46f
4:04 2.5ft 6s 9 11 mph 1019.7mb 50f 46f
3:04 2.5ft 6s 7
mph
1019mb 50f 46f
2:04 2.5ft 8s 4 7 mph 1018.4mb 49f 47f
1:04 3ft 8s 7
mph
1017.4mb 49f 47f
12:04 3ft 11s 9 11 mph 1016.9mb 49f 48f
mar. 11/25 11:04 3ft 6s 11 13 mph 1016.2mb 50f 49f
10:04 3.5ft 11s 13 16 mph 1015.1mb 49f 49f
9:04 3ft 11s 9 11 mph 1014.5mb 50f 50f
8:04  -   -  16 18 mph 1013.3mb 50f 52f
7:04 2.5ft 5s 16 18 mph 1012.3mb 50f 53f
6:04 3ft 6s 13 16 mph 1011.1mb 50f 53f
5:04  -   -  13 16 mph 1009.6mb 50f 53f
4:04 3ft 6s 13 16 mph 1008.4mb 50f 53f
3:04 4ft 6s 13 16 mph 1008.5mb 50f 53f
2:04 3ft 5s 16 18 mph 1007.8mb 49f 53f
1:04 3.5ft 8s 18 20 mph 1007.5mb 49f 53f
12:04 4.5ft 6s 18 20 mph 1007.1mb 49f 55f
11:04 4.5ft 8s 16 18 mph 1007.4mb 49f 53f
10:04 5ft 11s 18 20 mph 1007.2mb 49f 53f
9:04 5ft 11s 20 22 mph 1007.2mb 49f 54f
8:04 4.5ft 8s 16 20 mph 1006.6mb 50f 53f
7:04 5ft 8s 16 18 mph 1005.8mb 50f 53f
6:04 5.5ft 8s 16 18 mph 1004.8mb 50f 53f
5:04 5ft 6s 13 16 mph 1004.4mb 50f 53f
4:04 5ft 11s 13 16 mph 1003.6mb 49f 53f
3:04 5ft 6s 11 13 mph 1003.3mb 49f 55f
2:04  -   -  20 25 mph 1002.5mb 49f 57f
1:04 5.5ft 8s 16 20 mph 1001.8mb 49f 54f
12:04 6ft 8s 18 20 mph 1001.5mb 49f 54f
lun. 11/24 11:04 6ft 8s 20 22 mph 1000.7mb 49f 54f
10:04 5.5ft 8s 22 27 mph 1000.4mb 49f 54f
9:04 7ft 6s 25 29 mph 1000.4mb 49f 54f
8:04 6ft 8s 22 29 mph 1000.9mb 49f 54f
7:04 6.5ft 8s 22 27 mph 1001.3mb 49f 55f
6:04 6.5ft 8s 22 27 mph 1000.4mb 49f 55f
5:04 7ft 6s 25 31 mph 1000.6mb 49f 55f
4:04 7ft 8s 22 29 mph 1001.2mb 49f 54f
3:04 6ft 6s 25 29 mph 1002mb 49f 55f
2:04 8ft 6s 29 36 mph 1002mb 49f 55f
1:04 7.5ft 6s 25 31 mph 1003.1mb 49f 54f
12:04 7.5ft 6s 31 38 mph 1004.4mb 49f 54f
11:04 6ft 5s 34 40 mph 1006.1mb 49f 54f
10:04 4.5ft 5s 25 29 mph 1008.8mb 49f 53f
9:04 3.5ft 5s 25 27 mph 1012mb 49f 53f
8:04 3.5ft 5s 16 18 mph 1013.3mb 49f 51f
7:04 3.5ft 5s 13 16 mph 1014.6mb 49f 51f
6:04 3ft 4s 13 18 mph 1015.9mb 49f 51f
5:04 3ft 4s 16 20 mph 1016.5mb 49f 50f
4:04 2.5ft 4s 16 20 mph 1017mb 49f 50f
3:04 2.5ft 4s 16 18 mph 1017.6mb 49f 50f
2:04 2.5ft 6s 16 18 mph 1018.6mb 49f 50f
1:04 1.6ft 6s 13 16 mph 1018.5mb 49f 50f
12:04 1.6ft 6s 11 13 mph 1018.9mb 49f 50f
dim. 11/23 11:04 1.6ft 6s 9 11 mph 1019.1mb 49f 50f
10:04 2.5ft 8s 9 11 mph 1019.2mb 49f 50f
9:04 2.5ft 6s 9
mph
1019.9mb 49f 50f
8:04 2.5ft 6s 9
mph
1020.1mb 49f 50f
7:04 2.5ft 6s 4
mph
1019.3mb 49f 49f